createdAt,value
2017-06-22T00:00:48.934Z,51.40
2017-06-22T00:03:15.092Z,51.40
2017-06-22T00:05:41.255Z,51.90
2017-06-22T00:08:07.481Z,52.10
2017-06-22T00:10:33.630Z,51.90
2017-06-22T00:13:00.557Z,52.30
2017-06-22T00:15:27.473Z,53.30
2017-06-22T00:17:53.598Z,52.40
2017-06-22T00:20:19.808Z,52.90
2017-06-22T00:22:45.979Z,53.10
2017-06-22T00:25:12.151Z,53.30
2017-06-22T00:27:38.323Z,53.00
2017-06-22T00:30:04.502Z,52.70
2017-06-22T00:32:30.675Z,52.30
2017-06-22T00:34:56.867Z,52.90
2017-06-22T00:37:23.021Z,53.30
2017-06-22T00:39:49.189Z,53.50
2017-06-22T00:42:16.160Z,54.00
2017-06-22T00:44:42.330Z,53.40
2017-06-22T00:47:08.499Z,53.40
2017-06-22T00:49:35.420Z,54.60
2017-06-22T00:52:01.570Z,54.60
2017-06-22T00:54:28.487Z,54.00
2017-06-22T00:56:55.415Z,55.10
2017-06-22T00:59:21.584Z,54.50
2017-06-22T01:01:48.475Z,55.10
2017-06-22T01:04:14.662Z,54.90
2017-06-22T01:06:41.551Z,56.00
2017-06-22T01:09:07.687Z,55.80
2017-06-22T01:11:33.887Z,55.00
2017-06-22T01:14:00.051Z,54.70
2017-06-22T01:16:26.234Z,55.20
2017-06-22T01:18:52.428Z,54.90
2017-06-22T01:21:18.611Z,54.60
2017-06-22T01:23:44.754Z,55.50
2017-06-22T01:26:10.910Z,56.30
2017-06-22T01:28:37.850Z,55.00
2017-06-22T01:31:03.986Z,55.00
2017-06-22T01:33:30.874Z,56.00
2017-06-22T01:35:57.044Z,55.30
2017-06-22T01:38:23.221Z,55.70
2017-06-22T01:40:49.394Z,54.90
2017-06-22T01:43:15.555Z,55.30
2017-06-22T01:45:41.735Z,55.20
2017-06-22T01:48:07.952Z,55.10
2017-06-22T01:50:34.176Z,55.10
2017-06-22T01:53:00.379Z,55.60
2017-06-22T01:55:26.558Z,54.90
2017-06-22T01:57:52.720Z,55.60
2017-06-22T02:00:19.630Z,56.90
2017-06-22T02:02:45.815Z,56.20
2017-06-22T02:05:12.006Z,56.80
2017-06-22T02:07:38.147Z,55.70
2017-06-22T02:10:05.040Z,57.30
2017-06-22T02:12:31.202Z,57.00
2017-06-22T02:14:57.358Z,57.50
2017-06-22T02:17:23.554Z,57.50
2017-06-22T02:19:49.730Z,56.90
2017-06-22T02:22:15.916Z,57.00
2017-06-22T02:24:43.570Z,57.00
2017-06-22T02:27:09.770Z,57.00
2017-06-22T02:29:35.989Z,57.00
2017-06-22T02:32:02.200Z,57.00
2017-06-22T02:34:28.380Z,57.50
2017-06-22T02:36:54.554Z,57.70
2017-06-22T02:39:20.749Z,57.60
2017-06-22T02:41:47.638Z,58.90
2017-06-22T02:44:13.800Z,58.30
2017-06-22T02:46:40.020Z,58.40
2017-06-22T02:49:06.195Z,59.20
2017-06-22T02:51:33.077Z,59.90
2017-06-22T02:53:59.257Z,59.40
2017-06-22T02:56:26.188Z,59.50
2017-06-22T02:58:52.347Z,58.50
2017-06-22T03:01:18.515Z,58.20
2017-06-22T03:03:44.714Z,58.50
2017-06-22T03:06:11.656Z,58.50
2017-06-22T03:08:38.596Z,58.70
2017-06-22T03:11:04.778Z,58.80
2017-06-22T03:13:31.335Z,59.50
2017-06-22T03:15:58.253Z,58.70
2017-06-22T03:18:24.425Z,58.90
2017-06-22T03:20:51.339Z,59.50
2017-06-22T03:23:17.507Z,59.50
2017-06-22T03:25:43.702Z,59.80
2017-06-22T03:28:10.231Z,58.50
2017-06-22T03:30:36.420Z,58.90
2017-06-22T03:33:02.584Z,58.20
2017-06-22T03:35:28.744Z,58.60
2017-06-22T03:37:55.695Z,58.90
2017-06-22T03:40:21.874Z,58.20
2017-06-22T03:42:48.043Z,58.20
2017-06-22T03:45:14.978Z,58.60
2017-06-22T03:47:41.878Z,58.90
2017-06-22T03:50:08.051Z,58.40
2017-06-22T03:52:34.952Z,59.00
2017-06-22T03:55:01.095Z,58.50
2017-06-22T03:57:27.239Z,58.70
2017-06-22T03:59:53.471Z,59.80
2017-06-22T04:02:20.015Z,59.60
2017-06-22T04:04:46.903Z,61.70
2017-06-22T04:07:13.073Z,61.00
2017-06-22T04:09:39.246Z,60.40
2017-06-22T04:12:05.415Z,60.30
2017-06-22T04:14:31.626Z,60.60
2017-06-22T04:16:57.786Z,60.50
2017-06-22T04:19:24.005Z,60.40
2017-06-22T04:21:50.167Z,59.40
2017-06-22T04:24:17.068Z,60.10
2017-06-22T04:26:43.278Z,59.60
2017-06-22T04:29:09.423Z,58.70
2017-06-22T04:31:35.568Z,57.70
2017-06-22T04:34:01.748Z,57.40
2017-06-22T04:36:28.665Z,57.20
2017-06-22T04:38:55.576Z,56.90
2017-06-22T04:41:21.739Z,56.90
2017-06-22T04:43:48.725Z,57.50
2017-06-22T04:46:14.894Z,55.90
2017-06-22T04:48:41.104Z,55.60
2017-06-22T04:51:07.293Z,54.70
2017-06-22T04:53:33.461Z,55.00
2017-06-22T04:55:59.604Z,55.40
2017-06-22T04:58:26.574Z,55.40
2017-06-22T05:00:52.751Z,55.20
2017-06-22T05:03:18.906Z,55.10
2017-06-22T05:05:45.079Z,54.60
2017-06-22T05:08:11.271Z,54.30
2017-06-22T05:10:38.198Z,55.10
2017-06-22T05:13:04.343Z,54.00
2017-06-22T05:15:31.270Z,54.70
2017-06-22T05:17:57.499Z,53.70
2017-06-22T05:20:23.687Z,53.70
2017-06-22T05:22:49.915Z,53.50
2017-06-22T05:25:16.079Z,53.20
2017-06-22T05:27:42.239Z,52.70
2017-06-22T05:30:09.619Z,53.70
2017-06-22T05:32:37.298Z,52.70
2017-06-22T05:35:03.477Z,53.50
2017-06-22T05:37:30.014Z,52.90
2017-06-22T05:39:56.564Z,52.40
2017-06-22T05:42:22.763Z,53.10
2017-06-22T05:44:48.908Z,52.00
2017-06-22T05:47:15.794Z,52.50
2017-06-22T05:49:41.975Z,52.30
2017-06-22T05:52:08.919Z,51.70
2017-06-22T05:54:35.825Z,51.70
2017-06-22T05:57:02.033Z,51.70
2017-06-22T05:59:28.274Z,51.80
2017-06-22T06:01:54.441Z,53.00
2017-06-22T06:04:20.625Z,51.80
2017-06-22T06:06:46.791Z,51.30
2017-06-22T06:09:12.959Z,50.60
2017-06-22T06:11:39.183Z,51.10
2017-06-22T06:14:05.350Z,50.20
2017-06-22T06:16:31.547Z,49.30
2017-06-22T06:19:13.337Z,48.50
2017-06-22T06:21:39.543Z,48.40
2017-06-22T06:24:06.476Z,48.10
2017-06-22T06:26:33.048Z,45.70
2017-06-22T06:28:59.276Z,47.00
2017-06-22T06:31:25.490Z,45.70
2017-06-22T06:33:52.368Z,45.80
2017-06-22T06:36:18.563Z,45.70
2017-06-22T06:38:45.455Z,47.40
2017-06-22T06:41:11.626Z,47.30
2017-06-22T06:43:38.576Z,46.80
2017-06-22T06:46:05.487Z,44.90
2017-06-22T06:48:31.683Z,46.30
2017-06-22T06:50:57.849Z,45.80
2017-06-22T06:53:24.015Z,46.40
2017-06-22T06:55:50.947Z,46.60
2017-06-22T06:58:17.486Z,45.50
2017-06-22T07:00:44.371Z,45.20
2017-06-22T07:03:10.550Z,44.80
2017-06-22T07:05:37.499Z,45.00
2017-06-22T07:08:03.701Z,44.50
2017-06-22T07:10:29.916Z,46.10
2017-06-22T07:12:56.084Z,44.40
2017-06-22T07:15:23.026Z,45.00
2017-06-22T07:18:04.108Z,44.90
2017-06-22T07:20:31.059Z,46.60
2017-06-22T07:22:57.999Z,45.50
2017-06-22T07:25:24.930Z,46.90
2017-06-22T07:27:51.131Z,45.60
2017-06-22T07:30:17.329Z,46.60
2017-06-22T07:32:43.472Z,43.90
2017-06-22T07:35:09.686Z,44.20
2017-06-22T07:37:35.910Z,43.70
2017-06-22T07:40:02.093Z,45.00
2017-06-22T07:42:28.259Z,44.70
2017-06-22T07:44:54.407Z,45.80
2017-06-22T07:47:20.559Z,45.60
2017-06-22T07:49:46.743Z,41.40
2017-06-22T07:52:12.918Z,42.10
2017-06-22T07:54:54.046Z,43.10
2017-06-22T07:57:20.222Z,40.90
2017-06-22T07:59:46.417Z,41.40
2017-06-22T08:02:12.959Z,40.40
2017-06-22T08:04:39.144Z,40.90
2017-06-22T08:07:05.340Z,39.80
2017-06-22T08:09:31.550Z,41.20
2017-06-22T08:11:57.746Z,41.50
2017-06-22T08:14:24.675Z,40.90
2017-06-22T08:16:51.589Z,41.80
2017-06-22T08:19:17.776Z,42.70
2017-06-22T08:21:43.996Z,42.80
2017-06-22T08:24:10.972Z,43.60
2017-06-22T08:26:37.169Z,42.90
2017-06-22T08:29:04.115Z,44.90
2017-06-22T08:31:31.107Z,44.60
2017-06-22T08:33:57.311Z,44.60
2017-06-22T08:36:23.508Z,43.80
2017-06-22T08:38:50.418Z,44.20
2017-06-22T08:41:16.594Z,43.30
2017-06-22T08:43:43.123Z,45.50
2017-06-22T08:59:15.510Z,43.20
2017-06-22T09:01:42.058Z,42.10
2017-06-22T09:04:08.268Z,40.90
2017-06-22T09:06:34.454Z,42.50
2017-06-22T09:09:00.638Z,42.00
2017-06-22T09:11:26.788Z,43.20
2017-06-22T09:13:52.953Z,43.20
2017-06-22T09:16:19.877Z,43.90
2017-06-22T09:18:51.741Z,46.10
2017-06-22T09:21:18.024Z,43.80
2017-06-22T09:23:44.158Z,42.10
2017-06-22T09:26:10.375Z,42.80
2017-06-22T09:28:36.540Z,41.50
2017-06-22T09:31:02.707Z,42.30
2017-06-22T09:33:29.614Z,42.60
2017-06-22T09:35:55.851Z,42.20
2017-06-22T09:38:22.033Z,41.50
2017-06-22T09:40:48.207Z,41.30
2017-06-22T09:43:14.421Z,42.40
2017-06-22T09:45:40.623Z,42.60
2017-06-22T09:48:06.801Z,44.00
2017-06-22T09:50:33.002Z,42.90
2017-06-22T09:52:59.175Z,42.60
2017-06-22T09:55:26.085Z,43.00
2017-06-22T09:57:52.293Z,43.20
2017-06-22T10:00:18.479Z,41.50
2017-06-22T10:02:45.385Z,41.60
2017-06-22T10:05:12.143Z,41.60
2017-06-22T10:07:53.246Z,41.30
2017-06-22T10:10:20.186Z,40.90
2017-06-22T10:12:47.110Z,41.00
2017-06-22T10:15:14.069Z,39.40
2017-06-22T10:17:40.279Z,39.20
2017-06-22T10:20:06.434Z,39.40
2017-06-22T10:22:33.540Z,39.90
2017-06-22T10:24:59.718Z,38.80
2017-06-22T10:27:26.638Z,39.00
2017-06-22T10:29:52.958Z,39.00
2017-06-22T10:32:19.303Z,40.20
2017-06-22T10:34:45.593Z,41.20
2017-06-22T10:37:27.822Z,39.60
2017-06-22T10:39:54.217Z,39.60
2017-06-22T10:42:20.508Z,40.70
2017-06-22T10:44:46.802Z,38.70
2017-06-22T10:47:13.121Z,39.20
2017-06-22T10:49:39.384Z,39.10
2017-06-22T10:52:05.853Z,38.80
2017-06-22T10:54:32.154Z,38.70
2017-06-22T10:56:58.479Z,38.20
2017-06-22T10:59:24.895Z,39.10
2017-06-22T11:01:51.135Z,38.70
2017-06-22T11:04:17.458Z,38.70
2017-06-22T11:06:43.676Z,39.20
2017-06-22T11:09:09.987Z,39.40
2017-06-22T11:11:36.324Z,39.60
2017-06-22T11:14:02.589Z,39.90
2017-06-22T11:16:28.895Z,36.90
2017-06-22T11:18:55.159Z,33.80
2017-06-22T11:21:21.449Z,33.90
2017-06-22T11:23:47.640Z,34.80
2017-06-22T11:26:14.533Z,34.80
2017-06-22T11:28:40.674Z,34.80
2017-06-22T11:31:06.860Z,36.20
2017-06-22T11:33:33.088Z,36.40
2017-06-22T11:35:59.259Z,35.00
2017-06-22T11:38:25.453Z,35.90
2017-06-22T11:40:51.634Z,38.00
2017-06-22T11:43:18.217Z,38.50
2017-06-22T11:45:44.422Z,38.90
2017-06-22T11:48:11.387Z,41.30
2017-06-22T11:50:37.593Z,41.20
2017-06-22T11:53:04.548Z,39.20
2017-06-22T11:55:31.505Z,39.30
2017-06-22T11:57:57.701Z,39.20
2017-06-22T12:00:23.847Z,38.90
2017-06-22T12:02:50.024Z,39.00
2017-06-22T12:05:16.192Z,36.30
2017-06-22T12:07:43.090Z,36.10
2017-06-22T12:10:09.287Z,36.20
2017-06-22T12:12:35.496Z,37.80
2017-06-22T12:15:02.475Z,39.70
2017-06-22T12:17:28.656Z,40.20
2017-06-22T12:19:55.271Z,40.10
2017-06-22T12:22:21.488Z,41.60
2017-06-22T12:24:47.647Z,41.10
2017-06-22T12:27:13.834Z,41.50
2017-06-22T12:29:40.020Z,39.80
2017-06-22T12:32:06.934Z,44.00
2017-06-22T12:34:33.119Z,44.00
2017-06-22T12:36:59.282Z,50.40
2017-06-22T12:39:25.442Z,51.40
2017-06-22T12:41:52.360Z,53.20
2017-06-22T12:44:18.559Z,52.70
2017-06-22T12:46:44.754Z,54.50
2017-06-22T12:49:11.674Z,53.00
2017-06-22T12:51:38.010Z,52.90
2017-06-22T12:54:04.303Z,46.50
2017-06-22T12:56:32.259Z,50.80
2017-06-22T12:58:59.130Z,47.50
2017-06-22T13:01:26.272Z,46.80
2017-06-22T13:03:52.558Z,46.40
2017-06-22T13:06:21.043Z,46.40
2017-06-22T13:08:48.075Z,47.10
2017-06-22T13:11:14.407Z,47.30
2017-06-22T13:13:41.480Z,47.90
2017-06-22T13:16:07.767Z,46.90
2017-06-22T13:18:33.965Z,47.40
2017-06-22T13:21:00.154Z,47.30
2017-06-22T13:23:26.653Z,46.20
2017-06-22T13:25:52.846Z,47.10
2017-06-22T13:28:19.035Z,46.90
2017-06-22T13:30:45.917Z,47.30
2017-06-22T13:33:12.145Z,47.30
2017-06-22T13:35:38.301Z,49.30
2017-06-22T13:38:04.502Z,48.10
2017-06-22T13:40:30.684Z,48.10
2017-06-22T13:42:56.842Z,49.00
2017-06-22T13:45:23.055Z,48.40
2017-06-22T13:47:49.956Z,49.50
2017-06-22T13:50:16.188Z,49.50
2017-06-22T13:52:42.534Z,50.30
2017-06-22T13:55:08.824Z,49.70
2017-06-22T13:57:35.143Z,50.30
2017-06-22T14:00:01.787Z,47.80
2017-06-22T14:02:28.106Z,49.00
2017-06-22T14:04:54.390Z,50.20
2017-06-22T14:07:20.729Z,51.20
2017-06-22T14:09:47.217Z,51.90
2017-06-22T14:12:13.519Z,50.50
2017-06-22T14:14:39.882Z,50.90
2017-06-22T14:17:06.179Z,52.40
2017-06-22T14:19:32.517Z,52.30
2017-06-22T14:21:59.559Z,53.50
2017-06-22T14:24:26.583Z,53.50
2017-06-22T14:26:52.923Z,53.90
2017-06-22T14:29:20.227Z,53.80
2017-06-22T14:31:46.580Z,54.80
2017-06-22T14:34:12.780Z,55.60
2017-06-22T14:36:39.036Z,56.10
2017-06-22T14:39:05.888Z,56.00
2017-06-22T14:41:39.363Z,55.50
2017-06-22T14:44:05.648Z,55.50
2017-06-22T14:46:32.732Z,56.40
2017-06-22T14:48:59.069Z,56.40
2017-06-22T14:51:25.289Z,55.30
2017-06-22T14:53:51.483Z,55.50
2017-06-22T14:56:18.391Z,56.70
2017-06-22T14:58:44.607Z,56.60
2017-06-22T15:01:10.827Z,55.30
2017-06-22T15:03:37.050Z,55.40
2017-06-22T15:06:04.126Z,56.00
2017-06-22T15:08:30.327Z,56.70
2017-06-22T15:10:56.471Z,56.90
2017-06-22T15:13:22.658Z,57.00
2017-06-22T15:15:49.584Z,58.30
2017-06-22T15:18:15.865Z,57.70
2017-06-22T15:20:42.649Z,58.50
2017-06-22T15:23:08.901Z,58.70
2017-06-22T15:25:35.852Z,58.40
2017-06-22T15:28:02.787Z,58.30
2017-06-22T15:30:29.782Z,58.70
2017-06-22T15:32:55.943Z,58.00
2017-06-22T15:35:22.119Z,58.30
2017-06-22T15:37:48.341Z,58.90
2017-06-22T15:40:14.499Z,59.50
2017-06-22T15:42:40.676Z,59.20
2017-06-22T15:45:07.613Z,58.40
2017-06-22T15:47:34.662Z,58.30
2017-06-22T15:50:00.860Z,58.70
2017-06-22T15:52:27.059Z,56.70
2017-06-22T15:54:53.226Z,55.50
2017-06-22T15:57:19.471Z,56.00
2017-06-22T15:59:45.664Z,57.00
2017-06-22T16:02:11.864Z,57.00
2017-06-22T16:04:38.103Z,57.50
2017-06-22T16:07:04.303Z,56.40
2017-06-22T16:09:31.235Z,57.50
2017-06-22T16:11:57.446Z,57.50
2017-06-22T16:14:23.669Z,57.20
2017-06-22T16:16:49.867Z,56.70
2017-06-22T16:19:16.028Z,56.70
2017-06-22T16:21:42.228Z,56.30
2017-06-22T16:24:08.421Z,55.80
2017-06-22T16:26:35.323Z,56.00
2017-06-22T16:29:01.535Z,56.00
2017-06-22T16:31:27.706Z,54.30
2017-06-22T16:33:54.648Z,53.60
2017-06-22T16:36:20.811Z,51.20
2017-06-22T16:38:47.038Z,51.30
2017-06-22T16:41:13.261Z,51.80
2017-06-22T16:43:39.448Z,52.80
2017-06-22T16:46:05.653Z,53.50
2017-06-22T16:48:31.829Z,52.80
2017-06-22T16:50:58.837Z,52.80
2017-06-22T16:53:25.037Z,52.20
2017-06-22T16:55:51.249Z,52.20
2017-06-22T16:58:17.463Z,53.10
2017-06-22T17:00:44.427Z,51.60
2017-06-22T17:03:11.177Z,50.50
2017-06-22T17:05:37.369Z,52.50
2017-06-22T17:08:03.593Z,52.50
2017-06-22T17:10:29.804Z,51.80
2017-06-22T17:12:56.340Z,52.30
2017-06-22T17:15:22.595Z,51.60
2017-06-22T17:17:49.582Z,53.40
2017-06-22T17:20:15.812Z,52.70
2017-06-22T17:22:42.025Z,53.40
2017-06-22T17:25:08.274Z,51.10
2017-06-22T17:27:34.471Z,52.90
2017-06-22T17:30:01.080Z,53.80
2017-06-22T17:32:27.275Z,52.30
2017-06-22T17:34:53.538Z,51.20
2017-06-22T17:37:19.694Z,51.10
2017-06-22T17:39:46.605Z,54.40
2017-06-22T17:42:12.911Z,52.50
2017-06-22T17:44:39.070Z,53.10
2017-06-22T17:47:05.262Z,54.40
2017-06-22T17:49:31.498Z,54.10
2017-06-22T17:51:57.773Z,52.90
2017-06-22T17:57:00.717Z,54.70
2017-06-22T17:59:26.944Z,53.50
2017-06-22T18:01:53.186Z,54.40
2017-06-22T18:04:19.400Z,54.60
2017-06-22T18:06:45.695Z,55.10
2017-06-22T18:09:12.603Z,56.30
2017-06-22T18:11:38.811Z,55.60
2017-06-22T18:14:05.020Z,55.00
2017-06-22T18:16:31.228Z,53.80
2017-06-22T18:18:58.182Z,54.40
2017-06-22T18:21:25.070Z,54.30
2017-06-22T18:23:51.244Z,54.10
2017-06-22T18:26:18.227Z,55.00
2017-06-22T18:28:44.431Z,54.90
2017-06-22T18:31:11.371Z,56.00
2017-06-22T18:33:38.332Z,56.40
2017-06-22T18:36:04.534Z,56.40
2017-06-22T18:38:30.764Z,56.70
2017-06-22T18:40:56.980Z,56.70
2017-06-22T18:43:23.185Z,57.10
2017-06-22T18:45:49.417Z,57.50
2017-06-22T18:48:15.647Z,57.10
2017-06-22T18:50:41.952Z,57.40
2017-06-22T18:53:08.208Z,58.10
2017-06-22T18:55:34.422Z,58.00
2017-06-22T18:58:00.618Z,58.70
2017-06-22T19:00:26.866Z,59.40
2017-06-22T19:02:53.113Z,59.10
2017-06-22T19:05:19.340Z,59.20
2017-06-22T19:07:45.559Z,59.20
2017-06-22T19:10:12.584Z,59.20
2017-06-22T19:12:38.783Z,59.00
2017-06-22T19:15:05.011Z,58.40
2017-06-22T19:17:32.060Z,59.20
2017-06-22T19:19:58.324Z,59.80
2017-06-22T19:22:24.516Z,59.70
2017-06-22T19:24:50.686Z,59.10
2017-06-22T19:27:16.916Z,59.00
2017-06-22T19:29:43.118Z,59.70
2017-06-22T19:32:10.125Z,60.60
2017-06-22T19:34:36.283Z,60.50
2017-06-22T19:37:02.482Z,61.30
2017-06-22T19:39:29.540Z,62.20
2017-06-22T19:41:55.732Z,62.80
2017-06-22T19:44:21.899Z,62.00
2017-06-22T19:46:48.098Z,61.30
2017-06-22T19:49:14.323Z,61.90
2017-06-22T19:51:41.311Z,61.50
2017-06-22T19:54:07.555Z,61.30
2017-06-22T19:56:34.689Z,62.00
2017-06-22T19:59:01.804Z,61.60
2017-06-22T20:01:27.986Z,61.30
2017-06-22T20:03:54.933Z,62.10
2017-06-22T20:06:21.865Z,62.30
2017-06-22T20:08:48.068Z,62.30
2017-06-22T20:11:14.368Z,62.00
2017-06-22T20:13:40.623Z,62.00
2017-06-22T20:16:06.825Z,62.60
2017-06-22T20:18:33.056Z,62.10
2017-06-22T20:20:59.503Z,61.40
2017-06-22T20:23:25.749Z,62.00
2017-06-22T20:25:51.939Z,63.00
2017-06-22T20:28:18.123Z,63.60
2017-06-22T20:30:44.321Z,63.60
2017-06-22T20:33:10.498Z,64.10
2017-06-22T20:35:37.396Z,64.10
2017-06-22T20:38:03.583Z,63.50
2017-06-22T20:40:29.763Z,64.00
2017-06-22T20:42:55.927Z,64.50
2017-06-22T20:45:22.912Z,63.90
2017-06-22T20:47:49.156Z,63.80
2017-06-22T20:50:15.337Z,64.40
2017-06-22T20:52:42.263Z,64.30
2017-06-22T20:55:08.439Z,64.40
2017-06-22T20:57:34.681Z,64.90
2017-06-22T21:00:00.891Z,65.50
2017-06-22T21:02:27.347Z,64.50
2017-06-22T21:04:53.976Z,64.00
2017-06-22T21:07:20.134Z,63.50
2017-06-22T21:09:46.334Z,63.90
2017-06-22T21:12:13.275Z,64.30
2017-06-22T21:14:39.449Z,63.30
2017-06-22T21:17:05.700Z,63.30
2017-06-22T21:19:32.668Z,63.70
2017-06-22T21:21:59.664Z,62.50
2017-06-22T21:24:26.042Z,63.70
2017-06-22T21:26:52.199Z,61.80
2017-06-22T21:29:19.311Z,61.20
2017-06-22T21:31:45.666Z,62.30
2017-06-22T21:34:12.086Z,63.00
2017-06-22T21:36:38.263Z,63.30
2017-06-22T21:39:04.740Z,62.90
2017-06-22T21:41:30.954Z,63.30
2017-06-22T21:43:57.881Z,63.20
2017-06-22T21:46:24.070Z,63.10
2017-06-22T21:48:50.319Z,63.10
2017-06-22T21:51:16.531Z,62.90
2017-06-22T21:53:42.708Z,63.50
2017-06-22T21:56:09.593Z,64.00
2017-06-22T21:58:35.819Z,63.90
2017-06-22T22:01:02.030Z,64.40
2017-06-22T22:03:28.306Z,63.40
2017-06-22T22:05:54.479Z,62.60
2017-06-22T22:08:21.397Z,62.50
2017-06-22T22:10:47.611Z,61.80
2017-06-22T22:13:13.781Z,61.00
2017-06-22T22:15:40.708Z,61.50
2017-06-22T22:18:07.638Z,61.70
2017-06-22T22:20:33.809Z,61.20
2017-06-22T22:23:00.000Z,60.30
2017-06-22T22:25:26.215Z,60.10
2017-06-22T22:27:52.385Z,59.80
2017-06-22T22:30:19.298Z,61.20
2017-06-22T22:32:45.500Z,60.80
2017-06-22T22:35:11.656Z,60.80
2017-06-22T22:37:37.852Z,61.30
2017-06-22T22:40:04.743Z,60.60
2017-06-22T22:42:31.686Z,61.00
2017-06-22T22:44:58.598Z,61.30
2017-06-22T22:47:24.798Z,60.20
2017-06-22T22:49:50.983Z,59.90
2017-06-22T22:52:19.159Z,59.70
2017-06-22T22:54:45.346Z,59.50
2017-06-22T22:57:11.580Z,58.80
2017-06-22T22:59:37.735Z,59.30
2017-06-22T23:02:03.899Z,58.40
2017-06-22T23:04:30.091Z,58.40
2017-06-22T23:06:56.307Z,57.90
2017-06-22T23:09:22.469Z,57.80
2017-06-22T23:11:49.357Z,56.10
2017-06-22T23:14:15.527Z,55.30
2017-06-22T23:16:41.710Z,55.00
2017-06-22T23:19:07.927Z,54.70
2017-06-22T23:21:34.057Z,54.70
2017-06-22T23:24:00.275Z,54.80
2017-06-22T23:26:26.474Z,55.20
2017-06-22T23:28:53.385Z,55.10
2017-06-22T23:31:19.578Z,54.70
2017-06-22T23:33:45.726Z,54.50
2017-06-22T23:36:11.902Z,54.70
2017-06-22T23:38:38.834Z,54.90
2017-06-22T23:41:04.998Z,54.90
2017-06-22T23:43:31.159Z,55.20
2017-06-22T23:45:57.403Z,54.40
2017-06-22T23:48:23.543Z,54.60
2017-06-22T23:50:49.690Z,55.20
2017-06-22T23:53:16.668Z,55.50
2017-06-22T23:55:42.850Z,54.80
2017-06-22T23:58:09.000Z,55.00
